sensor_id;sensor_type;location;lat;lon;timestamp;P1;durP1;ratioP1;P2;durP2;ratioP2
46815;SDS011;32787;53.316;8.670;2023-03-30T00:00:52;44.97;;;26.73;;
46815;SDS011;32787;53.316;8.670;2023-03-30T00:03:18;41.95;;;26.00;;
46815;SDS011;32787;53.316;8.670;2023-03-30T00:05:46;43.97;;;26.17;;
46815;SDS011;32787;53.316;8.670;2023-03-30T00:08:14;44.47;;;27.27;;
46815;SDS011;32787;53.316;8.670;2023-03-30T00:10:42;39.28;;;25.20;;
46815;SDS011;32787;53.316;8.670;2023-03-30T00:13:08;45.85;;;25.50;;
46815;SDS011;32787;53.316;8.670;2023-03-30T00:15:35;43.92;;;25.85;;
46815;SDS011;32787;53.316;8.670;2023-03-30T00:18:01;40.10;;;25.10;;
46815;SDS011;32787;53.316;8.670;2023-03-30T00:20:27;38.90;;;23.90;;
46815;SDS011;32787;53.316;8.670;2023-03-30T00:22:56;38.33;;;24.48;;
46815;SDS011;32787;53.316;8.670;2023-03-30T00:25:22;37.85;;;23.65;;
46815;SDS011;32787;53.316;8.670;2023-03-30T00:27:48;38.35;;;24.25;;
46815;SDS011;32787;53.316;8.670;2023-03-30T00:30:14;37.22;;;23.33;;
46815;SDS011;32787;53.316;8.670;2023-03-30T00:32:44;37.90;;;22.65;;
46815;SDS011;32787;53.316;8.670;2023-03-30T00:35:11;39.40;;;23.67;;
46815;SDS011;32787;53.316;8.670;2023-03-30T00:37:37;37.58;;;23.23;;
46815;SDS011;32787;53.316;8.670;2023-03-30T00:40:04;34.25;;;22.15;;
46815;SDS011;32787;53.316;8.670;2023-03-30T00:42:36;37.85;;;23.42;;
46815;SDS011;32787;53.316;8.670;2023-03-30T00:50:28;38.80;;;23.45;;
46815;SDS011;32787;53.316;8.670;2023-03-30T00:53:10;35.50;;;22.73;;
46815;SDS011;32787;53.316;8.670;2023-03-30T00:55:40;38.40;;;22.98;;
46815;SDS011;32787;53.316;8.670;2023-03-30T00:58:08;34.63;;;22.52;;
46815;SDS011;32787;53.316;8.670;2023-03-30T01:00:35;40.80;;;23.58;;
46815;SDS011;32787;53.316;8.670;2023-03-30T01:03:04;37.85;;;22.30;;
46815;SDS011;32787;53.316;8.670;2023-03-30T01:05:38;39.80;;;22.70;;
46815;SDS011;32787;53.316;8.670;2023-03-30T01:08:06;41.13;;;23.60;;
46815;SDS011;32787;53.316;8.670;2023-03-30T01:10:34;35.83;;;23.25;;
46815;SDS011;32787;53.316;8.670;2023-03-30T01:13:00;37.00;;;22.33;;
46815;SDS011;32787;53.316;8.670;2023-03-30T01:15:26;39.90;;;23.70;;
46815;SDS011;32787;53.316;8.670;2023-03-30T01:28:54;35.67;;;22.88;;
46815;SDS011;32787;53.316;8.670;2023-03-30T01:41:53;36.97;;;21.95;;
46815;SDS011;32787;53.316;8.670;2023-03-30T01:44:37;36.50;;;22.83;;
46815;SDS011;32787;53.316;8.670;2023-03-30T01:50:22;40.88;;;23.55;;
46815;SDS011;32787;53.316;8.670;2023-03-30T01:52:57;37.33;;;24.42;;
46815;SDS011;32787;53.316;8.670;2023-03-30T01:58:19;40.58;;;24.20;;
46815;SDS011;32787;53.316;8.670;2023-03-30T02:00:49;39.17;;;23.42;;
46815;SDS011;32787;53.316;8.670;2023-03-30T02:03:17;40.70;;;24.70;;
46815;SDS011;32787;53.316;8.670;2023-03-30T02:05:52;38.75;;;24.10;;
46815;SDS011;32787;53.316;8.670;2023-03-30T02:08:23;39.13;;;23.13;;
46815;SDS011;32787;53.316;8.670;2023-03-30T02:10:53;38.65;;;22.60;;
46815;SDS011;32787;53.316;8.670;2023-03-30T02:13:22;42.17;;;23.85;;
46815;SDS011;32787;53.316;8.670;2023-03-30T02:15:55;37.55;;;21.88;;
46815;SDS011;32787;53.316;8.670;2023-03-30T02:18:32;37.15;;;22.70;;
46815;SDS011;32787;53.316;8.670;2023-03-30T02:20:59;36.10;;;21.95;;
46815;SDS011;32787;53.316;8.670;2023-03-30T02:23:27;40.17;;;24.00;;
46815;SDS011;32787;53.316;8.670;2023-03-30T02:25:57;38.85;;;22.80;;
46815;SDS011;32787;53.316;8.670;2023-03-30T02:28:23;36.28;;;21.80;;
46815;SDS011;32787;53.316;8.670;2023-03-30T02:30:49;34.38;;;21.35;;
46815;SDS011;32787;53.316;8.670;2023-03-30T02:33:19;34.50;;;21.38;;
46815;SDS011;32787;53.316;8.670;2023-03-30T02:38:41;32.95;;;19.85;;
46815;SDS011;32787;53.316;8.670;2023-03-30T02:41:37;28.23;;;17.67;;
46815;SDS011;32787;53.316;8.670;2023-03-30T02:50:33;29.58;;;18.75;;
46815;SDS011;32787;53.316;8.670;2023-03-30T02:52:58;28.02;;;18.73;;
46815;SDS011;32787;53.316;8.670;2023-03-30T02:55:43;32.05;;;18.70;;
46815;SDS011;32787;53.316;8.670;2023-03-30T02:58:24;30.65;;;16.40;;
46815;SDS011;32787;53.316;8.670;2023-03-30T03:03:30;30.63;;;17.50;;
46815;SDS011;32787;53.316;8.670;2023-03-30T03:05:59;27.33;;;17.02;;
46815;SDS011;32787;53.316;8.670;2023-03-30T03:08:34;28.23;;;16.48;;
46815;SDS011;32787;53.316;8.670;2023-03-30T03:11:01;28.00;;;16.98;;
46815;SDS011;32787;53.316;8.670;2023-03-30T03:13:27;34.08;;;17.38;;
46815;SDS011;32787;53.316;8.670;2023-03-30T03:15:53;28.13;;;16.17;;
46815;SDS011;32787;53.316;8.670;2023-03-30T03:18:22;29.77;;;16.80;;
46815;SDS011;32787;53.316;8.670;2023-03-30T03:20:48;24.52;;;15.00;;
46815;SDS011;32787;53.316;8.670;2023-03-30T03:23:14;24.92;;;15.20;;
46815;SDS011;32787;53.316;8.670;2023-03-30T03:25:40;28.75;;;16.23;;
46815;SDS011;32787;53.316;8.670;2023-03-30T03:28:06;28.48;;;16.17;;
46815;SDS011;32787;53.316;8.670;2023-03-30T03:30:31;23.60;;;14.68;;
46815;SDS011;32787;53.316;8.670;2023-03-30T03:32:57;23.77;;;15.30;;
46815;SDS011;32787;53.316;8.670;2023-03-30T03:35:23;25.40;;;15.52;;
46815;SDS011;32787;53.316;8.670;2023-03-30T03:37:48;27.00;;;15.45;;
46815;SDS011;32787;53.316;8.670;2023-03-30T03:40:14;21.77;;;14.57;;
46815;SDS011;32787;53.316;8.670;2023-03-30T03:42:40;23.98;;;13.57;;
46815;SDS011;32787;53.316;8.670;2023-03-30T03:45:06;25.58;;;14.25;;
46815;SDS011;32787;53.316;8.670;2023-03-30T03:47:33;22.65;;;13.80;;
46815;SDS011;32787;53.316;8.670;2023-03-30T03:49:59;23.23;;;14.48;;
46815;SDS011;32787;53.316;8.670;2023-03-30T03:52:28;22.52;;;13.15;;
46815;SDS011;32787;53.316;8.670;2023-03-30T03:54:54;23.02;;;13.55;;
46815;SDS011;32787;53.316;8.670;2023-03-30T03:57:20;24.50;;;13.10;;
46815;SDS011;32787;53.316;8.670;2023-03-30T03:59:48;23.80;;;13.25;;
46815;SDS011;32787;53.316;8.670;2023-03-30T04:02:14;20.25;;;11.65;;
46815;SDS011;32787;53.316;8.670;2023-03-30T04:04:40;21.98;;;11.85;;
46815;SDS011;32787;53.316;8.670;2023-03-30T04:07:06;19.92;;;11.70;;
46815;SDS011;32787;53.316;8.670;2023-03-30T04:09:31;19.80;;;10.85;;
46815;SDS011;32787;53.316;8.670;2023-03-30T04:11:57;16.95;;;10.65;;
46815;SDS011;32787;53.316;8.670;2023-03-30T04:14:22;19.60;;;10.93;;
46815;SDS011;32787;53.316;8.670;2023-03-30T04:16:48;17.25;;;10.38;;
46815;SDS011;32787;53.316;8.670;2023-03-30T04:19:15;18.23;;;10.00;;
46815;SDS011;32787;53.316;8.670;2023-03-30T04:21:41;17.63;;;10.55;;
46815;SDS011;32787;53.316;8.670;2023-03-30T04:24:11;18.88;;;9.50;;
46815;SDS011;32787;53.316;8.670;2023-03-30T04:26:37;17.67;;;10.18;;
46815;SDS011;32787;53.316;8.670;2023-03-30T04:29:05;17.67;;;9.82;;
46815;SDS011;32787;53.316;8.670;2023-03-30T04:31:32;17.60;;;8.63;;
46815;SDS011;32787;53.316;8.670;2023-03-30T04:33:58;19.70;;;9.43;;
46815;SDS011;32787;53.316;8.670;2023-03-30T04:36:26;17.20;;;8.88;;
46815;SDS011;32787;53.316;8.670;2023-03-30T04:38:55;19.70;;;9.45;;
46815;SDS011;32787;53.316;8.670;2023-03-30T04:41:30;15.98;;;9.02;;
46815;SDS011;32787;53.316;8.670;2023-03-30T04:46:29;17.73;;;9.48;;
46815;SDS011;32787;53.316;8.670;2023-03-30T04:48:55;21.50;;;9.65;;
46815;SDS011;32787;53.316;8.670;2023-03-30T04:51:21;18.00;;;9.68;;
46815;SDS011;32787;53.316;8.670;2023-03-30T04:53:47;18.00;;;9.50;;
46815;SDS011;32787;53.316;8.670;2023-03-30T04:56:13;16.10;;;9.85;;
46815;SDS011;32787;53.316;8.670;2023-03-30T04:58:39;17.90;;;8.90;;
46815;SDS011;32787;53.316;8.670;2023-03-30T05:01:04;15.80;;;8.65;;
46815;SDS011;32787;53.316;8.670;2023-03-30T05:03:30;15.18;;;8.13;;
46815;SDS011;32787;53.316;8.670;2023-03-30T05:05:56;13.27;;;8.20;;
46815;SDS011;32787;53.316;8.670;2023-03-30T05:08:22;15.48;;;7.30;;
46815;SDS011;32787;53.316;8.670;2023-03-30T05:10:48;15.75;;;8.02;;
46815;SDS011;32787;53.316;8.670;2023-03-30T05:13:13;12.10;;;6.88;;
46815;SDS011;32787;53.316;8.670;2023-03-30T05:15:39;14.45;;;7.40;;
46815;SDS011;32787;53.316;8.670;2023-03-30T05:18:05;12.43;;;7.07;;
46815;SDS011;32787;53.316;8.670;2023-03-30T05:20:31;16.08;;;7.20;;
46815;SDS011;32787;53.316;8.670;2023-03-30T05:22:57;13.02;;;6.80;;
46815;SDS011;32787;53.316;8.670;2023-03-30T05:25:22;12.77;;;6.75;;
46815;SDS011;32787;53.316;8.670;2023-03-30T05:27:48;14.40;;;5.80;;
46815;SDS011;32787;53.316;8.670;2023-03-30T05:30:14;12.95;;;6.25;;
46815;SDS011;32787;53.316;8.670;2023-03-30T05:32:40;15.25;;;6.10;;
46815;SDS011;32787;53.316;8.670;2023-03-30T05:35:06;17.67;;;6.00;;
46815;SDS011;32787;53.316;8.670;2023-03-30T05:37:33;12.20;;;5.00;;
46815;SDS011;32787;53.316;8.670;2023-03-30T05:39:58;11.50;;;5.40;;
46815;SDS011;32787;53.316;8.670;2023-03-30T05:42:24;12.82;;;5.40;;
46815;SDS011;32787;53.316;8.670;2023-03-30T05:44:50;12.63;;;5.03;;
46815;SDS011;32787;53.316;8.670;2023-03-30T05:47:16;13.50;;;5.05;;
46815;SDS011;32787;53.316;8.670;2023-03-30T05:49:42;13.27;;;4.43;;
46815;SDS011;32787;53.316;8.670;2023-03-30T05:52:07;14.85;;;5.18;;
46815;SDS011;32787;53.316;8.670;2023-03-30T05:54:33;12.15;;;5.00;;
46815;SDS011;32787;53.316;8.670;2023-03-30T05:56:59;10.80;;;5.20;;
46815;SDS011;32787;53.316;8.670;2023-03-30T05:59:25;8.98;;;5.63;;
46815;SDS011;32787;53.316;8.670;2023-03-30T06:01:51;8.85;;;4.35;;
46815;SDS011;32787;53.316;8.670;2023-03-30T06:04:17;8.70;;;4.35;;
46815;SDS011;32787;53.316;8.670;2023-03-30T06:06:42;13.45;;;4.88;;
46815;SDS011;32787;53.316;8.670;2023-03-30T06:09:08;12.18;;;4.20;;
46815;SDS011;32787;53.316;8.670;2023-03-30T06:11:34;10.88;;;4.30;;
46815;SDS011;32787;53.316;8.670;2023-03-30T06:14:00;12.75;;;4.60;;
46815;SDS011;32787;53.316;8.670;2023-03-30T06:16:26;8.57;;;4.57;;
46815;SDS011;32787;53.316;8.670;2023-03-30T06:18:53;10.57;;;4.63;;
46815;SDS011;32787;53.316;8.670;2023-03-30T06:21:18;9.95;;;4.22;;
46815;SDS011;32787;53.316;8.670;2023-03-30T06:23:44;9.48;;;3.95;;
46815;SDS011;32787;53.316;8.670;2023-03-30T06:26:10;9.77;;;4.10;;
46815;SDS011;32787;53.316;8.670;2023-03-30T06:28:36;12.38;;;4.65;;
46815;SDS011;32787;53.316;8.670;2023-03-30T06:31:06;9.15;;;4.15;;
46815;SDS011;32787;53.316;8.670;2023-03-30T06:33:36;8.55;;;4.50;;
46815;SDS011;32787;53.316;8.670;2023-03-30T06:36:02;9.32;;;4.15;;
46815;SDS011;32787;53.316;8.670;2023-03-30T06:38:28;12.45;;;4.18;;
46815;SDS011;32787;53.316;8.670;2023-03-30T06:40:54;12.57;;;4.47;;
46815;SDS011;32787;53.316;8.670;2023-03-30T06:43:21;9.35;;;4.38;;
46815;SDS011;32787;53.316;8.670;2023-03-30T06:45:49;9.40;;;4.28;;
46815;SDS011;32787;53.316;8.670;2023-03-30T06:48:16;11.05;;;4.93;;
46815;SDS011;32787;53.316;8.670;2023-03-30T06:50:44;9.07;;;4.45;;
46815;SDS011;32787;53.316;8.670;2023-03-30T06:53:10;9.77;;;4.45;;
46815;SDS011;32787;53.316;8.670;2023-03-30T06:55:36;11.70;;;4.70;;
46815;SDS011;32787;53.316;8.670;2023-03-30T06:58:02;10.60;;;4.57;;
46815;SDS011;32787;53.316;8.670;2023-03-30T07:00:27;11.18;;;4.68;;
46815;SDS011;32787;53.316;8.670;2023-03-30T07:02:53;11.13;;;4.78;;
46815;SDS011;32787;53.316;8.670;2023-03-30T07:05:19;12.93;;;4.78;;
46815;SDS011;32787;53.316;8.670;2023-03-30T07:07:49;13.10;;;4.53;;
46815;SDS011;32787;53.316;8.670;2023-03-30T07:10:17;11.80;;;4.75;;
46815;SDS011;32787;53.316;8.670;2023-03-30T07:12:42;14.38;;;4.70;;
46815;SDS011;32787;53.316;8.670;2023-03-30T07:15:09;11.60;;;4.60;;
46815;SDS011;32787;53.316;8.670;2023-03-30T07:17:35;10.48;;;4.50;;
46815;SDS011;32787;53.316;8.670;2023-03-30T07:20:01;10.07;;;4.63;;
46815;SDS011;32787;53.316;8.670;2023-03-30T07:22:28;9.65;;;4.40;;
46815;SDS011;32787;53.316;8.670;2023-03-30T07:24:54;12.63;;;4.43;;
46815;SDS011;32787;53.316;8.670;2023-03-30T07:27:20;10.00;;;4.30;;
46815;SDS011;32787;53.316;8.670;2023-03-30T07:29:48;10.95;;;4.47;;
46815;SDS011;32787;53.316;8.670;2023-03-30T07:32:14;9.65;;;4.22;;
46815;SDS011;32787;53.316;8.670;2023-03-30T07:34:41;11.48;;;4.03;;
46815;SDS011;32787;53.316;8.670;2023-03-30T07:37:07;11.60;;;3.90;;
46815;SDS011;32787;53.316;8.670;2023-03-30T07:39:33;10.63;;;3.88;;
46815;SDS011;32787;53.316;8.670;2023-03-30T07:41:59;17.50;;;4.20;;
46815;SDS011;32787;53.316;8.670;2023-03-30T07:44:24;10.68;;;4.00;;
46815;SDS011;32787;53.316;8.670;2023-03-30T07:46:53;9.85;;;3.70;;
46815;SDS011;32787;53.316;8.670;2023-03-30T07:49:19;12.35;;;4.03;;
46815;SDS011;32787;53.316;8.670;2023-03-30T07:51:45;9.98;;;3.47;;
46815;SDS011;32787;53.316;8.670;2023-03-30T07:54:11;7.43;;;3.70;;
46815;SDS011;32787;53.316;8.670;2023-03-30T07:56:37;9.70;;;3.72;;
46815;SDS011;32787;53.316;8.670;2023-03-30T07:59:04;10.45;;;4.15;;
46815;SDS011;32787;53.316;8.670;2023-03-30T08:01:32;8.70;;;3.17;;
46815;SDS011;32787;53.316;8.670;2023-03-30T08:03:58;9.40;;;3.67;;
46815;SDS011;32787;53.316;8.670;2023-03-30T08:06:24;8.63;;;3.33;;
46815;SDS011;32787;53.316;8.670;2023-03-30T08:08:51;11.95;;;3.83;;
46815;SDS011;32787;53.316;8.670;2023-03-30T08:11:16;10.48;;;4.03;;
46815;SDS011;32787;53.316;8.670;2023-03-30T08:13:43;10.02;;;3.47;;
46815;SDS011;32787;53.316;8.670;2023-03-30T08:16:08;9.15;;;3.90;;
46815;SDS011;32787;53.316;8.670;2023-03-30T08:18:34;9.38;;;3.25;;
46815;SDS011;32787;53.316;8.670;2023-03-30T08:21:05;8.88;;;3.53;;
46815;SDS011;32787;53.316;8.670;2023-03-30T08:23:31;11.10;;;3.42;;
46815;SDS011;32787;53.316;8.670;2023-03-30T08:25:57;12.43;;;3.67;;
46815;SDS011;32787;53.316;8.670;2023-03-30T08:28:24;9.25;;;3.92;;
46815;SDS011;32787;53.316;8.670;2023-03-30T08:30:50;11.73;;;3.75;;
46815;SDS011;32787;53.316;8.670;2023-03-30T08:33:16;9.55;;;4.05;;
46815;SDS011;32787;53.316;8.670;2023-03-30T08:35:45;11.70;;;3.85;;
46815;SDS011;32787;53.316;8.670;2023-03-30T08:38:11;12.90;;;4.00;;
46815;SDS011;32787;53.316;8.670;2023-03-30T08:40:47;8.05;;;3.38;;
46815;SDS011;32787;53.316;8.670;2023-03-30T08:45:45;8.73;;;3.30;;
46815;SDS011;32787;53.316;8.670;2023-03-30T08:48:21;8.77;;;3.13;;
46815;SDS011;32787;53.316;8.670;2023-03-30T08:53:28;10.82;;;3.33;;
46815;SDS011;32787;53.316;8.670;2023-03-30T08:55:57;7.78;;;3.30;;
46815;SDS011;32787;53.316;8.670;2023-03-30T09:06:46;9.35;;;3.50;;
46815;SDS011;32787;53.316;8.670;2023-03-30T09:09:16;11.70;;;3.85;;
46815;SDS011;32787;53.316;8.670;2023-03-30T09:11:43;11.32;;;3.05;;
46815;SDS011;32787;53.316;8.670;2023-03-30T09:14:25;10.25;;;3.20;;
46815;SDS011;32787;53.316;8.670;2023-03-30T09:17:06;9.80;;;3.50;;
46815;SDS011;32787;53.316;8.670;2023-03-30T09:19:59;8.63;;;2.92;;
46815;SDS011;32787;53.316;8.670;2023-03-30T09:22:32;7.68;;;2.92;;
46815;SDS011;32787;53.316;8.670;2023-03-30T09:25:39;15.65;;;3.85;;
46815;SDS011;32787;53.316;8.670;2023-03-30T09:28:11;12.60;;;2.90;;
46815;SDS011;32787;53.316;8.670;2023-03-30T09:31:02;6.95;;;2.45;;
46815;SDS011;32787;53.316;8.670;2023-03-30T09:38:43;10.95;;;2.90;;
46815;SDS011;32787;53.316;8.670;2023-03-30T09:44:15;7.72;;;2.55;;
46815;SDS011;32787;53.316;8.670;2023-03-30T09:46:47;8.23;;;2.00;;
46815;SDS011;32787;53.316;8.670;2023-03-30T09:49:14;10.38;;;2.28;;
46815;SDS011;32787;53.316;8.670;2023-03-30T09:51:54;10.23;;;1.92;;
46815;SDS011;32787;53.316;8.670;2023-03-30T09:54:33;9.02;;;2.13;;
46815;SDS011;32787;53.316;8.670;2023-03-30T09:57:01;13.55;;;1.75;;
46815;SDS011;32787;53.316;8.670;2023-03-30T09:59:31;10.48;;;2.15;;
46815;SDS011;32787;53.316;8.670;2023-03-30T10:09:54;15.02;;;2.85;;
46815;SDS011;32787;53.316;8.670;2023-03-30T10:12:23;13.05;;;2.97;;
46815;SDS011;32787;53.316;8.670;2023-03-30T10:15:02;13.98;;;2.55;;
46815;SDS011;32787;53.316;8.670;2023-03-30T10:17:28;10.98;;;2.40;;
46815;SDS011;32787;53.316;8.670;2023-03-30T10:22:52;9.02;;;2.25;;
46815;SDS011;32787;53.316;8.670;2023-03-30T10:25:20;9.90;;;2.17;;
46815;SDS011;32787;53.316;8.670;2023-03-30T10:27:49;10.53;;;2.07;;
46815;SDS011;32787;53.316;8.670;2023-03-30T10:30:18;9.75;;;1.77;;
46815;SDS011;32787;53.316;8.670;2023-03-30T10:32:47;9.15;;;2.00;;
46815;SDS011;32787;53.316;8.670;2023-03-30T10:35:16;9.75;;;2.03;;
46815;SDS011;32787;53.316;8.670;2023-03-30T10:37:49;14.30;;;2.60;;
46815;SDS011;32787;53.316;8.670;2023-03-30T10:40:18;7.65;;;2.03;;
46815;SDS011;32787;53.316;8.670;2023-03-30T10:42:49;11.38;;;2.50;;
46815;SDS011;32787;53.316;8.670;2023-03-30T10:45:19;12.98;;;2.90;;
46815;SDS011;32787;53.316;8.670;2023-03-30T10:53:17;7.85;;;2.42;;
46815;SDS011;32787;53.316;8.670;2023-03-30T11:04:59;15.02;;;3.10;;
46815;SDS011;32787;53.316;8.670;2023-03-30T11:08:05;11.93;;;2.97;;
46815;SDS011;32787;53.316;8.670;2023-03-30T11:10:39;14.23;;;3.25;;
46815;SDS011;32787;53.316;8.670;2023-03-30T11:15:50;13.50;;;2.97;;
46815;SDS011;32787;53.316;8.670;2023-03-30T11:18:19;14.55;;;2.85;;
46815;SDS011;32787;53.316;8.670;2023-03-30T11:23:45;12.82;;;2.72;;
46815;SDS011;32787;53.316;8.670;2023-03-30T11:26:32;14.90;;;2.60;;
46815;SDS011;32787;53.316;8.670;2023-03-30T11:29:08;13.48;;;2.83;;
46815;SDS011;32787;53.316;8.670;2023-03-30T11:34:47;13.35;;;2.42;;
46815;SDS011;32787;53.316;8.670;2023-03-30T11:37:35;12.52;;;2.38;;
46815;SDS011;32787;53.316;8.670;2023-03-30T11:40:25;16.15;;;3.13;;
46815;SDS011;32787;53.316;8.670;2023-03-30T11:42:52;15.88;;;2.60;;
46815;SDS011;32787;53.316;8.670;2023-03-30T11:45:24;17.85;;;3.05;;
46815;SDS011;32787;53.316;8.670;2023-03-30T11:50:35;15.70;;;3.28;;
46815;SDS011;32787;53.316;8.670;2023-03-30T11:53:12;13.52;;;2.50;;
46815;SDS011;32787;53.316;8.670;2023-03-30T11:56:06;17.60;;;3.92;;
46815;SDS011;32787;53.316;8.670;2023-03-30T11:58:39;12.48;;;2.65;;
46815;SDS011;32787;53.316;8.670;2023-03-30T12:03:45;13.88;;;2.85;;
46815;SDS011;32787;53.316;8.670;2023-03-30T12:06:31;17.60;;;2.92;;
46815;SDS011;32787;53.316;8.670;2023-03-30T12:16:58;15.23;;;3.17;;
46815;SDS011;32787;53.316;8.670;2023-03-30T12:19:57;11.98;;;2.67;;
46815;SDS011;32787;53.316;8.670;2023-03-30T12:22:46;13.15;;;2.03;;
46815;SDS011;32787;53.316;8.670;2023-03-30T12:31:08;8.05;;;1.73;;
46815;SDS011;32787;53.316;8.670;2023-03-30T12:33:34;12.32;;;1.80;;
46815;SDS011;32787;53.316;8.670;2023-03-30T12:38:58;14.27;;;1.90;;
46815;SDS011;32787;53.316;8.670;2023-03-30T12:41:26;11.73;;;1.65;;
46815;SDS011;32787;53.316;8.670;2023-03-30T12:46:50;10.95;;;1.88;;
46815;SDS011;32787;53.316;8.670;2023-03-30T13:04:58;10.60;;;2.45;;
46815;SDS011;32787;53.316;8.670;2023-03-30T13:07:28;11.98;;;2.42;;
46815;SDS011;32787;53.316;8.670;2023-03-30T13:10:05;15.82;;;2.25;;
46815;SDS011;32787;53.316;8.670;2023-03-30T13:12:57;10.93;;;1.85;;
46815;SDS011;32787;53.316;8.670;2023-03-30T13:20:33;13.70;;;2.40;;
46815;SDS011;32787;53.316;8.670;2023-03-30T13:28:31;10.82;;;2.30;;
46815;SDS011;32787;53.316;8.670;2023-03-30T13:34:13;13.00;;;2.28;;
46815;SDS011;32787;53.316;8.670;2023-03-30T13:48:14;14.23;;;2.08;;
46815;SDS011;32787;53.316;8.670;2023-03-30T13:50:48;12.23;;;2.10;;
46815;SDS011;32787;53.316;8.670;2023-03-30T13:53:19;13.48;;;1.98;;
46815;SDS011;32787;53.316;8.670;2023-03-30T13:55:47;13.40;;;2.58;;
46815;SDS011;32787;53.316;8.670;2023-03-30T14:00:48;9.68;;;1.80;;
46815;SDS011;32787;53.316;8.670;2023-03-30T14:03:34;11.63;;;2.13;;
46815;SDS011;32787;53.316;8.670;2023-03-30T14:06:14;14.50;;;2.75;;
46815;SDS011;32787;53.316;8.670;2023-03-30T14:08:43;9.18;;;2.08;;
46815;SDS011;32787;53.316;8.670;2023-03-30T14:12:12;10.75;;;1.98;;
46815;SDS011;32787;53.316;8.670;2023-03-30T14:14:54;14.48;;;2.15;;
46815;SDS011;32787;53.316;8.670;2023-03-30T14:20:11;15.50;;;2.55;;
46815;SDS011;32787;53.316;8.670;2023-03-30T14:23:01;14.32;;;2.65;;
46815;SDS011;32787;53.316;8.670;2023-03-30T14:25:31;16.60;;;3.53;;
46815;SDS011;32787;53.316;8.670;2023-03-30T14:28:06;14.68;;;2.40;;
46815;SDS011;32787;53.316;8.670;2023-03-30T14:30:37;13.85;;;2.60;;
46815;SDS011;32787;53.316;8.670;2023-03-30T14:33:10;13.65;;;2.97;;
46815;SDS011;32787;53.316;8.670;2023-03-30T14:35:40;15.35;;;2.40;;
46815;SDS011;32787;53.316;8.670;2023-03-30T14:38:11;18.90;;;3.08;;
46815;SDS011;32787;53.316;8.670;2023-03-30T14:40:40;16.80;;;3.08;;
46815;SDS011;32787;53.316;8.670;2023-03-30T14:43:09;11.48;;;2.85;;
46815;SDS011;32787;53.316;8.670;2023-03-30T14:45:37;10.93;;;2.70;;
46815;SDS011;32787;53.316;8.670;2023-03-30T14:48:03;14.38;;;2.97;;
46815;SDS011;32787;53.316;8.670;2023-03-30T14:50:29;13.90;;;2.88;;
46815;SDS011;32787;53.316;8.670;2023-03-30T14:52:54;12.93;;;2.30;;
46815;SDS011;32787;53.316;8.670;2023-03-30T14:55:22;10.90;;;2.10;;
46815;SDS011;32787;53.316;8.670;2023-03-30T14:57:49;14.27;;;2.00;;
46815;SDS011;32787;53.316;8.670;2023-03-30T15:00:16;13.70;;;2.65;;
46815;SDS011;32787;53.316;8.670;2023-03-30T15:02:52;17.48;;;2.72;;
46815;SDS011;32787;53.316;8.670;2023-03-30T15:05:18;16.70;;;3.03;;
46815;SDS011;32787;53.316;8.670;2023-03-30T15:07:52;15.55;;;2.60;;
46815;SDS011;32787;53.316;8.670;2023-03-30T15:12:57;15.00;;;2.72;;
46815;SDS011;32787;53.316;8.670;2023-03-30T15:15:24;13.60;;;2.28;;
46815;SDS011;32787;53.316;8.670;2023-03-30T15:17:53;19.83;;;2.78;;
46815;SDS011;32787;53.316;8.670;2023-03-30T15:20:20;20.52;;;3.60;;
46815;SDS011;32787;53.316;8.670;2023-03-30T15:22:50;16.25;;;3.35;;
46815;SDS011;32787;53.316;8.670;2023-03-30T15:25:20;15.65;;;2.88;;
46815;SDS011;32787;53.316;8.670;2023-03-30T15:27:54;18.92;;;3.35;;
46815;SDS011;32787;53.316;8.670;2023-03-30T15:30:27;17.65;;;2.95;;
46815;SDS011;32787;53.316;8.670;2023-03-30T15:32:56;12.25;;;2.38;;
46815;SDS011;32787;53.316;8.670;2023-03-30T15:35:26;11.45;;;2.20;;
46815;SDS011;32787;53.316;8.670;2023-03-30T15:38:29;10.60;;;2.00;;
46815;SDS011;32787;53.316;8.670;2023-03-30T15:40:58;10.93;;;2.47;;
46815;SDS011;32787;53.316;8.670;2023-03-30T15:43:24;8.57;;;2.08;;
46815;SDS011;32787;53.316;8.670;2023-03-30T15:45:54;12.23;;;2.03;;
46815;SDS011;32787;53.316;8.670;2023-03-30T15:48:21;17.27;;;2.28;;
46815;SDS011;32787;53.316;8.670;2023-03-30T15:50:54;17.10;;;2.80;;
46815;SDS011;32787;53.316;8.670;2023-03-30T15:56:22;18.38;;;2.72;;
46815;SDS011;32787;53.316;8.670;2023-03-30T15:58:51;17.00;;;2.78;;
46815;SDS011;32787;53.316;8.670;2023-03-30T16:01:16;12.68;;;2.63;;
46815;SDS011;32787;53.316;8.670;2023-03-30T16:03:52;16.30;;;3.05;;
46815;SDS011;32787;53.316;8.670;2023-03-30T16:06:20;14.50;;;2.42;;
46815;SDS011;32787;53.316;8.670;2023-03-30T16:08:46;13.02;;;2.65;;
46815;SDS011;32787;53.316;8.670;2023-03-30T16:11:12;16.75;;;2.53;;
46815;SDS011;32787;53.316;8.670;2023-03-30T16:13:41;13.65;;;2.90;;
46815;SDS011;32787;53.316;8.670;2023-03-30T16:16:08;14.43;;;2.65;;
46815;SDS011;32787;53.316;8.670;2023-03-30T16:18:35;14.65;;;2.45;;
46815;SDS011;32787;53.316;8.670;2023-03-30T16:21:01;13.20;;;2.45;;
46815;SDS011;32787;53.316;8.670;2023-03-30T16:23:28;14.77;;;2.80;;
46815;SDS011;32787;53.316;8.670;2023-03-30T16:25:54;15.23;;;3.10;;
46815;SDS011;32787;53.316;8.670;2023-03-30T16:28:22;15.48;;;2.80;;
46815;SDS011;32787;53.316;8.670;2023-03-30T16:30:47;19.65;;;2.97;;
46815;SDS011;32787;53.316;8.670;2023-03-30T16:33:16;19.35;;;2.90;;
46815;SDS011;32787;53.316;8.670;2023-03-30T16:35:42;17.60;;;3.33;;
46815;SDS011;32787;53.316;8.670;2023-03-30T16:38:09;15.50;;;2.92;;
46815;SDS011;32787;53.316;8.670;2023-03-30T16:40:43;15.40;;;2.72;;
46815;SDS011;32787;53.316;8.670;2023-03-30T16:43:11;18.20;;;3.20;;
46815;SDS011;32787;53.316;8.670;2023-03-30T16:45:36;20.30;;;3.13;;
46815;SDS011;32787;53.316;8.670;2023-03-30T16:48:02;19.60;;;3.45;;
46815;SDS011;32787;53.316;8.670;2023-03-30T16:50:41;21.55;;;3.15;;
46815;SDS011;32787;53.316;8.670;2023-03-30T16:53:11;19.50;;;3.25;;
46815;SDS011;32787;53.316;8.670;2023-03-30T16:55:37;18.42;;;2.95;;
46815;SDS011;32787;53.316;8.670;2023-03-30T16:58:03;16.30;;;2.72;;
46815;SDS011;32787;53.316;8.670;2023-03-30T17:00:31;14.73;;;2.97;;
46815;SDS011;32787;53.316;8.670;2023-03-30T17:03:01;22.50;;;3.58;;
46815;SDS011;32787;53.316;8.670;2023-03-30T17:05:27;22.52;;;3.55;;
46815;SDS011;32787;53.316;8.670;2023-03-30T17:07:53;16.60;;;3.53;;
46815;SDS011;32787;53.316;8.670;2023-03-30T17:12:48;23.42;;;4.03;;
46815;SDS011;32787;53.316;8.670;2023-03-30T17:15:15;22.73;;;4.03;;
46815;SDS011;32787;53.316;8.670;2023-03-30T17:17:41;15.35;;;3.08;;
46815;SDS011;32787;53.316;8.670;2023-03-30T17:22:47;23.77;;;4.22;;
46815;SDS011;32787;53.316;8.670;2023-03-30T17:25:13;24.15;;;4.45;;
46815;SDS011;32787;53.316;8.670;2023-03-30T17:27:39;20.27;;;3.40;;
46815;SDS011;32787;53.316;8.670;2023-03-30T17:30:13;25.08;;;4.90;;
46815;SDS011;32787;53.316;8.670;2023-03-30T17:32:41;17.35;;;3.63;;
46815;SDS011;32787;53.316;8.670;2023-03-30T17:35:08;26.90;;;4.88;;
46815;SDS011;32787;53.316;8.670;2023-03-30T17:37:34;25.10;;;4.95;;
46815;SDS011;32787;53.316;8.670;2023-03-30T17:40:00;28.80;;;4.57;;
46815;SDS011;32787;53.316;8.670;2023-03-30T17:42:34;24.27;;;4.30;;
46815;SDS011;32787;53.316;8.670;2023-03-30T17:44:59;29.70;;;4.60;;
46815;SDS011;32787;53.316;8.670;2023-03-30T17:47:25;19.27;;;4.25;;
46815;SDS011;32787;53.316;8.670;2023-03-30T17:49:51;22.10;;;4.70;;
46815;SDS011;32787;53.316;8.670;2023-03-30T17:52:16;23.33;;;4.50;;